LFJL

Metz-Nancy-Lorraine Airport

Airport
ICAO code
LFJL
IATA Code
ETZ
Summary
ICAO Region
EUR
ICAO Territory
Location

, Lorraine

Serving
Metz
Elevation
870 ft
Coordinates
48° 58' 56" N , 6° 15' 5" E
Metar
LFJL 190530Z AUTO 22012KT 9999 -RA NSC 05/03 Q1017 TEMPO 26015G25KT

Runways

Designator Length Width Surface Rops
4/22 2500 45 ASP Yes/Yes

Airport map

Aerial View

SKYbrary Partners:

Safety knowledge contributed by: